Southport, North Carolina
Current Conditions -  °F | °C
As of 11:15 AM on Saturday 20 Dec 2014 (Local Time) from KSUT Reporting Station
Light Rain Light Rain  
Wind Chill: 45°   Ceiling: 3100
Heat Index: 47°   Visibility: 4mi
Dew Point: 45°   Wind: 5mph
Humidity: 93%   Direction: 40°NE
Pressure: 30.25"   Gusts: NA
Location:  33.92°N, 78.02°W
Report Text: KSUT 201615Z AUTO 04004KT 4SM -RA SCT024 BKN031 OVC048 08/07 A3025 RMK AO2 P0002 T00820071
Loading
Personal Weather Stations






























Interactive Weather Map New forecast layout! Learn more

10-Day Weather Forecast

Advertisements
Track Severe Weather on mobile